Select Airport:
Chesapeake Regional Airport
Last updated: 8 minutes ago
Flight conditions: VFR
Visibility: 10.0 statute miles
Sky Conditions: Clear
Wind From: 150°
Wind speed: 4 knots (4.6 mph)
Temperature: 16.5°C (61.7°F)
Dew Point: 10.8°C (51.44°F)
Altimiter setting: 30.23 in-hg
WX phone: 1-757-204-4290
WX freq: 123.675 MHz
Runway 23
   Crosswind component: 3.94 knots (4.53 mph)
   Headwind component: 0.69 knots (0.8 mph)
   NOTE - Close to a 90° crosswind. Active runway may change if wind shifts.
KCPK 260115Z AUTO 15004KT 10SM CLR 17/11 A3023 RMK AO2 T01650108
FOR REFERENCE USE ONLY, DATA MAY NOT BE CURRENT.
ALWAYS CHECK FOR UP TO DATE INFORMATION.